Time;durP1;ratioP1;P1;durP2;ratioP2;P2;SDS_P1;SDS_P2;PMS_P1;PMS_P2;Temp;Humidity;BMP_temperature;BMP_pressure;BME280_temperature;BME280_humidity;BME280_pressure;Samples;Min_cycle;Max_cycle;Signal;HPM_P1;HPM_P2
2022/10/21 05:14:28;;;;;;;14.50;11.55;;;16.10;80.40;;;;;;4753152;30;20428;-75
2022/10/21 05:16:54;;;;;;;23.83;10.25;;;16.10;80.60;;;;;;4755812;30;20151;-77
2022/10/21 05:19:20;;;;;;;14.20;9.85;;;16.10;80.60;;;;;;4755481;30;20058;-79
2022/10/21 05:21:51;;;;;;;15.88;10.05;;;16.10;80.50;;;;;;4755238;30;20479;-78
2022/10/21 05:24:17;;;;;;;12.27;8.63;;;16.10;80.80;;;;;;4755159;30;20503;-77
2022/10/21 05:26:43;;;;;;;15.25;8.70;;;16.20;80.80;;;;;;4755099;30;20084;-77
2022/10/21 05:29:09;;;;;;;17.05;8.63;;;16.20;80.50;;;;;;4754914;30;20075;-80
2022/10/21 05:31:35;;;;;;;19.27;8.95;;;16.20;80.40;;;;;;4755056;30;20048;-78
2022/10/21 05:34:00;;;;;;;18.05;8.70;;;16.30;80.60;;;;;;4754898;30;20460;-76
2022/10/21 05:36:26;;;;;;;28.77;8.23;;;16.30;80.80;;;;;;4724674;30;20056;-75
2022/10/21 05:38:52;;;;;;;20.85;8.23;;;16.30;81.00;;;;;;4755010;30;20040;-75
2022/10/21 05:41:17;;;;;;;15.45;7.75;;;16.40;81.10;;;;;;4755631;30;20060;-76
2022/10/21 05:43:43;;;;;;;20.65;8.15;;;16.40;81.20;;;;;;4755051;30;20074;-79
2022/10/21 05:46:09;;;;;;;21.52;7.68;;;16.40;81.10;;;;;;4754453;30;20139;-80
2022/10/21 05:48:36;;;;;;;16.65;7.70;;;16.40;81.30;;;;;;4739054;30;20083;-79
2022/10/21 05:51:02;;;;;;;19.55;9.15;;;16.40;81.20;;;;;;4754168;30;20416;-80
2022/10/21 05:53:28;;;;;;;22.85;8.00;;;16.50;81.40;;;;;;4755586;30;20052;-80
2022/10/21 05:56:03;;;;;;;26.17;8.57;;;16.50;81.50;;;;;;4754763;30;20460;-79
2022/10/21 05:58:30;;;;;;;25.50;8.00;;;16.50;81.50;;;;;;4754377;30;20063;-78
2022/10/21 06:00:56;;;;;;;15.73;6.55;;;16.50;81.70;;;;;;4754737;30;20136;-79
2022/10/21 06:03:23;;;;;;;17.98;7.18;;;16.50;81.30;;;;;;4753824;30;20533;-80
2022/10/21 06:05:49;;;;;;;20.83;8.00;;;16.50;81.30;;;;;;4754671;30;20060;-80
2022/10/21 06:08:16;;;;;;;18.13;6.72;;;16.50;81.40;;;;;;4754493;30;20402;-80
2022/10/21 06:10:42;;;;;;;19.73;8.25;;;16.50;81.40;;;;;;4754597;30;20056;-78
2022/10/21 06:13:08;;;;;;;16.42;8.80;;;16.50;81.40;;;;;;4738564;30;20075;-75
2022/10/21 06:15:42;;;;;;;16.23;10.52;;;16.60;81.50;;;;;;4754713;30;20048;-82
2022/10/21 06:18:08;;;;;;;17.25;12.57;;;16.60;81.70;;;;;;4738522;30;20044;-83
2022/10/21 06:20:33;;;;;;;15.93;11.40;;;16.60;81.40;;;;;;4753476;30;20071;-80
2022/10/21 06:23:01;;;;;;;19.45;11.93;;;16.60;81.10;;;;;;4738529;30;20141;-82
2022/10/21 06:25:38;;;;;;;18.48;11.65;;;16.50;81.00;;;;;;4735334;30;20044;-82
2022/10/21 06:28:52;;;;;;;;;;;;;;;;;;;;;
2022/10/21 06:32:32;;;;;;;17.55;10.88;;;16.60;81.10;;;;;;4717107;30;20061;-82
2022/10/21 06:46:58;;;;;;;13.82;8.52;;;16.50;80.90;;;;;;4734387;30;20412;-82
2022/10/21 06:54:48;;;;;;;12.98;7.90;;;16.50;80.90;;;;;;4669103;30;20099;-82
2022/10/21 07:07:57;;;;;;;11.80;7.38;;;16.50;80.90;;;;;;5174376;27;20604;-80
2022/10/21 07:10:23;;;;;;;10.80;7.32;;;16.50;80.80;;;;;;5136010;27;20090;-81
2022/10/21 07:12:49;;;;;;;16.90;7.65;;;16.50;80.80;;;;;;5152976;27;20051;-81
2022/10/21 07:15:15;;;;;;;18.60;7.35;;;16.50;80.80;;;;;;5123063;27;20084;-80
2022/10/21 07:17:40;;;;;;;15.18;7.30;;;16.50;80.80;;;;;;5133531;27;20101;-80
2022/10/21 07:20:06;;;;;;;14.68;7.50;;;16.50;80.80;;;;;;5133270;28;20043;-77
2022/10/21 07:22:34;;;;;;;13.55;7.40;;;16.50;80.90;;;;;;5133368;28;20323;-76
2022/10/21 07:25:00;;;;;;;14.50;7.10;;;16.50;80.80;;;;;;5131813;28;20086;-76
2022/10/21 07:27:25;;;;;;;17.50;6.35;;;16.50;80.70;;;;;;5133399;28;20082;-77
2022/10/21 07:29:51;;;;;;;13.38;5.63;;;16.50;80.40;;;;;;5132984;28;20351;-77
2022/10/21 07:32:17;;;;;;;14.13;7.00;;;16.50;80.10;;;;;;5132493;28;20540;-76
2022/10/21 07:34:42;;;;;;;18.88;6.55;;;16.50;80.30;;;;;;5132184;28;20047;-77
2022/10/21 07:37:08;;;;;;;13.35;5.97;;;16.50;80.30;;;;;;5132807;28;20083;-77
2022/10/21 07:39:34;;;;;;;9.40;6.03;;;16.50;80.30;;;;;;5132003;28;20048;-78
2022/10/21 07:42:00;;;;;;;11.68;5.60;;;16.50;80.30;;;;;;5132500;28;20436;-77
2022/10/21 07:44:26;;;;;;;14.18;7.35;;;16.50;80.30;;;;;;5141464;27;20038;-77
2022/10/21 07:46:52;;;;;;;12.38;6.13;;;16.50;80.50;;;;;;5152004;27;20055;-76
2022/10/21 07:49:19;;;;;;;13.80;5.57;;;16.50;80.50;;;;;;5153325;27;20046;-76
2022/10/21 07:51:48;;;;;;;13.98;6.07;;;16.50;80.60;;;;;;5153149;27;20085;-77
2022/10/21 07:54:15;;;;;;;13.68;6.68;;;16.50;80.60;;;;;;5153227;27;20129;-76
2022/10/21 07:56:46;;;;;;;14.18;6.50;;;16.50;80.60;;;;;;5153610;27;20408;-76
2022/10/21 07:59:13;;;;;;;14.25;5.65;;;16.50;80.60;;;;;;5153038;27;20097;-75
2022/10/21 08:01:42;;;;;;;20.05;6.60;;;16.60;80.70;;;;;;5149432;27;20057;-77
2022/10/21 08:04:10;;;;;;;15.30;5.80;;;16.60;80.80;;;;;;5132369;27;20047;-75
2022/10/21 08:06:36;;;;;;;14.10;6.25;;;16.60;80.80;;;;;;5093995;28;20054;-77
2022/10/21 08:09:03;;;;;;;16.25;5.88;;;16.60;80.80;;;;;;5034111;28;20045;-76
2022/10/21 08:11:32;;;;;;;15.90;6.28;;;16.60;80.80;;;;;;5034406;28;20053;-73
2022/10/21 08:13:58;;;;;;;17.95;6.00;;;16.60;80.80;;;;;;5103614;28;20128;-75
2022/10/21 08:16:25;;;;;;;12.30;5.82;;;16.60;80.80;;;;;;5034343;28;20050;-78
2022/10/21 08:18:51;;;;;;;14.07;5.55;;;16.60;80.80;;;;;;5034628;28;20081;-77
2022/10/21 08:21:17;;;;;;;15.98;5.88;;;16.60;80.80;;;;;;5034565;28;20042;-76
2022/10/21 08:23:43;;;;;;;16.27;6.68;;;16.60;81.10;;;;;;5034394;28;20049;-77
2022/10/21 08:26:11;;;;;;;18.20;11.13;;;16.60;81.20;;;;;;5034064;28;20049;-79
2022/10/21 08:28:37;;;;;;;17.83;11.73;;;16.60;81.30;;;;;;5034346;28;20087;-79
2022/10/21 08:31:03;;;;;;;19.85;13.25;;;16.60;81.10;;;;;;5102894;28;20149;-78
2022/10/21 08:33:29;;;;;;;18.75;12.30;;;16.60;81.20;;;;;;5051321;28;20441;-82
2022/10/21 08:35:54;;;;;;;17.80;12.48;;;16.60;81.30;;;;;;5054790;28;20034;-82
2022/10/21 08:38:20;;;;;;;18.30;12.40;;;16.50;81.30;;;;;;5123999;27;20503;-81
2022/10/21 08:40:58;;;;;;;23.75;12.85;;;16.50;81.50;;;;;;5123306;27;20345;-82
2022/10/21 08:43:27;;;;;;;22.48;12.35;;;16.50;81.60;;;;;;5123170;27;20056;-77
2022/10/21 08:46:02;;;;;;;17.45;12.13;;;16.50;81.70;;;;;;5054140;28;20076;-76
2022/10/21 08:48:42;;;;;;;16.90;10.90;;;16.40;81.70;;;;;;5122962;27;20441;-77
2022/10/21 08:51:21;;;;;;;23.45;11.13;;;16.40;81.60;;;;;;5123075;27;20037;-77
2022/10/21 08:53:49;;;;;;;22.92;10.95;;;16.50;81.50;;;;;;5053801;27;20426;-81
2022/10/21 08:56:15;;;;;;;19.02;11.00;;;16.50;81.60;;;;;;5053687;28;20045;-78
2022/10/21 08:58:53;;;;;;;21.90;10.65;;;16.50;81.50;;;;;;5122852;27;20123;-78
2022/10/21 09:01:46;;;;;;;18.10;10.35;;;16.50;81.50;;;;;;5053809;28;20118;-77
2022/10/21 09:04:22;;;;;;;16.65;9.75;;;16.50;81.40;;;;;;5102188;28;20037;-78
2022/10/21 09:06:54;;;;;;;16.92;9.23;;;16.50;81.40;;;;;;5033840;28;20050;-77
2022/10/21 09:09:24;;;;;;;19.95;10.20;;;16.60;81.50;;;;;;5033182;28;20372;-77
2022/10/21 09:12:23;;;;;;;12.95;8.90;;;16.60;81.50;;;;;;5102764;28;20504;-79
2022/10/21 09:15:13;;;;;;;13.52;8.70;;;16.60;81.50;;;;;;5063725;28;20124;-79
2022/10/21 09:17:59;;;;;;;21.42;9.40;;;16.60;81.50;;;;;;5033756;28;20045;-79
2022/10/21 09:20:26;;;;;;;14.35;8.85;;;16.60;81.50;;;;;;5033015;28;20054;-78
2022/10/21 09:22:58;;;;;;;13.27;8.40;;;16.60;81.50;;;;;;5033950;28;20053;-77
2022/10/21 09:25:45;;;;;;;12.88;7.88;;;16.60;81.50;;;;;;5033635;28;20045;-79
2022/10/21 09:28:14;;;;;;;11.15;7.57;;;16.60;81.30;;;;;;5032773;28;20099;-78
2022/10/21 09:30:42;;;;;;;12.73;7.78;;;16.60;81.30;;;;;;5033858;28;20132;-78
2022/10/21 09:33:33;;;;;;;10.38;7.20;;;16.70;81.30;;;;;;5049514;28;20415;-79
2022/10/21 09:36:06;;;;;;;9.52;7.22;;;16.70;81.10;;;;;;5053787;28;20036;-78
2022/10/21 09:38:53;;;;;;;11.68;7.63;;;16.70;81.20;;;;;;5053443;27;20508;-78
2022/10/21 09:41:22;;;;;;;9.05;7.13;;;16.60;81.20;;;;;;5053223;28;20053;-79
2022/10/21 09:43:49;;;;;;;8.70;7.20;;;16.60;81.20;;;;;;5053146;28;20044;-79
2022/10/21 09:46:16;;;;;;;10.57;7.45;;;16.70;81.20;;;;;;5122132;27;20076;-78
2022/10/21 09:48:49;;;;;;;16.77;7.80;;;16.70;81.20;;;;;;5053037;28;20051;-79
2022/10/21 09:51:28;;;;;;;9.73;6.32;;;16.70;81.20;;;;;;5053497;28;20049;-78
2022/10/21 09:54:18;;;;;;;10.38;7.00;;;16.60;81.10;;;;;;5053472;28;20045;-78
2022/10/21 09:57:06;;;;;;;9.57;6.32;;;16.70;81.10;;;;;;5052848;28;20049;-77
2022/10/21 09:59:32;;;;;;;8.38;6.00;;;16.60;81.20;;;;;;5052824;28;20057;-77
2022/10/21 10:02:06;;;;;;;7.15;5.88;;;16.70;81.20;;;;;;5050939;28;20449;-78
2022/10/21 10:04:33;;;;;;;6.95;5.78;;;16.70;81.20;;;;;;5121709;27;20076;-78
2022/10/21 10:07:02;;;;;;;7.18;5.88;;;16.70;81.20;;;;;;5052601;28;20096;-78
2022/10/21 10:09:32;;;;;;;10.93;6.18;;;16.70;81.20;;;;;;5053072;28;20074;-77
2022/10/21 10:12:11;;;;;;;11.85;6.38;;;16.70;81.10;;;;;;5052828;28;20060;-77
2022/10/21 10:14:43;;;;;;;6.90;5.50;;;16.70;81.10;;;;;;5121945;27;20060;-77
2022/10/21 10:17:37;;;;;;;8.95;5.78;;;16.70;81.10;;;;;;5121363;27;20349;-77
2022/10/21 10:20:03;;;;;;;7.40;5.15;;;16.70;81.00;;;;;;5052650;28;20041;-80
2022/10/21 10:22:36;;;;;;;9.07;5.88;;;16.70;81.20;;;;;;5121404;27;20052;-81
2022/10/21 10:25:23;;;;;;;13.98;5.47;;;16.70;80.90;;;;;;5121295;27;20105;-83
2022/10/21 10:28:02;;;;;;;12.75;7.47;;;16.70;80.40;;;;;;5120880;27;20464;-85
2022/10/21 10:30:42;;;;;;;17.17;8.93;;;16.70;80.90;;;;;;5118598;27;20044;-83
2022/10/21 10:33:31;;;;;;;13.00;8.65;;;16.60;81.50;;;;;;5099725;27;20407;-81
2022/10/21 10:35:59;;;;;;;12.85;7.88;;;16.70;81.40;;;;;;5032268;28;20053;-78
2022/10/21 10:38:36;;;;;;;13.15;8.10;;;16.70;81.60;;;;;;5032494;28;20073;-81
2022/10/21 10:41:12;;;;;;;11.60;7.55;;;16.70;81.70;;;;;;5032418;28;20037;-75
2022/10/21 10:43:54;;;;;;;11.43;7.78;;;16.60;81.70;;;;;;5032773;28;20095;-76
2022/10/21 10:46:20;;;;;;;10.77;7.15;;;16.60;81.50;;;;;;5032266;28;20041;-77
2022/10/21 10:48:49;;;;;;;12.45;7.75;;;16.60;81.70;;;;;;5032352;28;20056;-78
2022/10/21 10:52:02;;;;;;;15.25;6.57;;;16.60;81.70;;;;;;5099753;28;20394;-76
2022/10/21 10:54:27;;;;;;;11.80;6.43;;;16.70;81.00;;;;;;5041366;28;20057;-77
2022/10/21 10:57:01;;;;;;;12.57;7.30;;;16.70;81.20;;;;;;5032136;28;20059;-79
2022/10/21 10:59:42;;;;;;;13.82;5.95;;;16.70;81.50;;;;;;5032555;28;20128;-81
2022/10/21 11:02:11;;;;;;;21.55;8.57;;;16.60;81.70;;;;;;5110667;28;20460;-83
2022/10/21 11:04:56;;;;;;;13.07;7.68;;;16.60;81.70;;;;;;5120954;28;20093;-82
2022/10/21 11:07:31;;;;;;;13.50;7.78;;;16.70;81.90;;;;;;5103153;28;20053;-84
2022/10/21 11:10:24;;;;;;;12.85;8.85;;;16.70;81.90;;;;;;5051680;27;20037;-82
2022/10/21 11:12:49;;;;;;;46.97;20.55;;;16.70;82.20;;;;;;5120645;28;20041;-77
2022/10/21 11:15:15;;;;;;;27.25;15.43;;;16.70;82.40;;;;;;5051483;28;20120;-77
2022/10/21 11:17:56;;;;;;;39.17;19.80;;;16.70;82.60;;;;;;5051713;28;20090;-77
2022/10/21 11:20:36;;;;;;;32.90;17.63;;;16.60;83.20;;;;;;5052141;27;20060;-77
2022/10/21 11:23:08;;;;;;;25.25;14.25;;;16.60;83.50;;;;;;5051546;28;20059;-77
2022/10/21 11:25:40;;;;;;;23.02;12.10;;;16.70;83.60;;;;;;5050788;28;20341;-76
2022/10/21 11:28:14;;;;;;;19.55;9.93;;;16.70;83.60;;;;;;5103039;28;20057;-78
2022/10/21 11:31:01;;;;;;;19.58;10.20;;;16.70;83.30;;;;;;5051794;27;20041;-75
2022/10/21 11:33:46;;;;;;;18.85;10.32;;;16.70;83.30;;;;;;5031829;28;20057;-78
2022/10/21 11:36:35;;;;;;;16.65;9.25;;;16.70;83.30;;;;;;5099900;28;20037;-77
2022/10/21 11:39:03;;;;;;;15.68;8.43;;;16.70;83.20;;;;;;5031581;28;20041;-76
2022/10/21 11:41:47;;;;;;;15.45;8.95;;;16.70;83.20;;;;;;5031474;28;20469;-75
2022/10/21 11:44:28;;;;;;;13.98;8.38;;;16.70;83.10;;;;;;5034472;28;20049;-76
2022/10/21 11:47:15;;;;;;;14.75;7.50;;;16.70;83.00;;;;;;5034863;28;20479;-76
2022/10/21 11:49:57;;;;;;;14.15;7.85;;;16.70;82.90;;;;;;5034751;28;20058;-75
2022/10/21 11:52:52;;;;;;;13.23;7.65;;;16.70;82.80;;;;;;5034772;27;20128;-76
2022/10/21 11:55:29;;;;;;;14.35;6.90;;;16.70;82.60;;;;;;5034786;28;20076;-76
2022/10/21 11:58:13;;;;;;;13.70;6.88;;;16.70;82.60;;;;;;5034979;28;20056;-77
2022/10/21 12:01:22;;;;;;;10.27;6.45;;;16.70;82.50;;;;;;5034818;28;20054;-75
2022/10/21 12:03:57;;;;;;;9.00;6.22;;;16.80;82.40;;;;;;5049318;28;20369;-77
2022/10/21 12:06:41;;;;;;;10.65;6.65;;;16.80;82.40;;;;;;5034515;28;20061;-77
2022/10/21 12:09:27;;;;;;;11.70;6.55;;;16.70;82.20;;;;;;5034096;28;20053;-79
2022/10/21 12:12:16;;;;;;;13.00;5.90;;;16.70;82.00;;;;;;5034600;28;20050;-78
2022/10/21 12:15:03;;;;;;;10.75;5.93;;;16.80;81.90;;;;;;5103315;28;20037;-79
2022/10/21 12:17:51;;;;;;;11.77;5.97;;;16.80;81.90;;;;;;5034238;28;20056;-79
2022/10/21 12:21:07;;;;;;;8.70;4.80;;;16.80;81.80;;;;;;5103185;28;20114;-79
2022/10/21 12:23:33;;;;;;;8.85;5.07;;;16.80;81.80;;;;;;5103264;28;20045;-78
2022/10/21 12:26:23;;;;;;;10.55;5.10;;;16.80;81.80;;;;;;5101923;28;20128;-81
2022/10/21 12:29:21;;;;;;;10.98;4.95;;;16.80;81.70;;;;;;5033650;28;20049;-79
2022/10/21 12:31:51;;;;;;;8.45;4.82;;;16.80;81.70;;;;;;5034265;28;20057;-80
2022/10/21 12:34:17;;;;;;;7.82;4.15;;;16.80;81.70;;;;;;5034282;27;20362;-80
2022/10/21 12:36:49;;;;;;;7.15;3.80;;;16.80;81.70;;;;;;5034039;28;20121;-80
2022/10/21 12:39:33;;;;;;;8.75;4.32;;;16.80;81.70;;;;;;5103346;28;20117;-81
2022/10/21 12:42:10;;;;;;;;;;;16.80;81.60;;;;;;5103284;28;20058;-80
2022/10/21 12:44:37;;;;;;;6.78;4.07;;;16.80;81.50;;;;;;5033752;28;19928;-80
2022/10/21 12:47:33;;;;;;;6.43;4.30;;;16.80;81.60;;;;;;5033963;28;20059;-81
2022/10/21 12:50:33;;;;;;;7.97;3.85;;;16.80;81.50;;;;;;5103012;28;20060;-82
2022/10/21 12:53:27;;;;;;;9.57;3.83;;;16.80;81.50;;;;;;5034079;28;20046;-80
2022/10/21 12:55:57;;;;;;;10.48;3.92;;;16.80;81.50;;;;;;5094973;28;20057;-80
2022/10/21 12:58:45;;;;;;;8.93;4.18;;;16.80;81.40;;;;;;5102839;28;20532;-80
2022/10/21 13:01:45;;;;;;;8.30;4.55;;;16.90;81.60;;;;;;5108620;27;20045;-81
2022/10/21 13:04:44;;;;;;;6.50;4.32;;;16.90;81.80;;;;;;5053363;28;20065;-81
2022/10/21 13:07:16;;;;;;;7.00;4.70;;;16.90;81.70;;;;;;5097190;28;20055;-81
2022/10/21 13:09:49;;;;;;;8.93;4.30;;;16.90;81.80;;;;;;5116543;28;20047;-79
2022/10/21 13:12:26;;;;;;;10.52;4.05;;;16.90;81.90;;;;;;5117310;28;20059;-78
2022/10/21 13:15:20;;;;;;;10.02;4.60;;;16.90;81.90;;;;;;5099122;28;20039;-80
2022/10/21 13:18:06;;;;;;;5.78;3.72;;;16.90;82.00;;;;;;5098709;28;20090;-82
2022/10/21 13:20:58;;;;;;;6.72;3.92;;;16.90;82.20;;;;;;5116234;28;20035;-82
2022/10/21 13:24:01;;;;;;;;;;;;;;;;;;;;;
2022/10/21 13:26:30;;;;;;;11.13;4.95;;;16.90;82.30;;;;;;5116998;28;20043;-80
2022/10/21 13:29:05;;;;;;;7.97;3.95;;;16.90;83.00;;;;;;5098861;28;20039;-80
2022/10/21 13:31:30;;;;;;;8.45;4.07;;;16.90;82.50;;;;;;5117008;27;20047;-82
2022/10/21 13:33:57;;;;;;;9.38;4.38;;;16.90;82.40;;;;;;5120949;27;20122;-80
2022/10/21 13:36:46;;;;;;;8.25;4.75;;;16.90;82.50;;;;;;5114958;28;20047;-81
2022/10/21 13:39:55;;;;;;;6.45;4.80;;;17.00;82.60;;;;;;5098197;28;20035;-82
2022/10/21 13:43:08;;;;;;;12.98;7.57;;;16.90;83.10;;;;;;5098827;28;20036;-82
2022/10/21 13:45:48;;;;;;;10.18;6.28;;;17.00;83.60;;;;;;5115504;28;20044;-82
2022/10/21 13:48:25;;;;;;;11.32;6.20;;;17.00;83.80;;;;;;5115514;28;20035;-78
2022/10/21 13:51:04;;;;;;;16.23;8.07;;;17.00;83.80;;;;;;5115385;28;20036;-79
2022/10/21 13:53:39;;;;;;;23.52;14.10;;;17.00;83.80;;;;;;5105443;27;20092;-81
2022/10/21 13:56:24;;;;;;;11.63;8.20;;;17.00;84.20;;;;;;5134681;27;20043;-80
2022/10/21 13:58:51;;;;;;;11.23;7.63;;;17.10;84.50;;;;;;5134991;27;20175;-81
2022/10/21 14:01:24;;;;;;;14.85;7.13;;;17.00;84.80;;;;;;5131432;27;20093;-79
2022/10/21 14:03:55;;;;;;;14.20;7.57;;;17.00;84.20;;;;;;5115634;28;20449;-76
2022/10/21 14:06:34;;;;;;;13.35;8.07;;;17.00;84.20;;;;;;5086379;28;20111;-77
2022/10/21 14:09:02;;;;;;;12.88;7.68;;;17.10;84.70;;;;;;5032190;28;20472;-76
2022/10/21 14:11:51;;;;;;;10.50;7.03;;;17.10;84.70;;;;;;5100837;28;20041;-80
2022/10/21 14:14:21;;;;;;;11.75;6.35;;;17.10;84.40;;;;;;5031785;28;20194;-77
2022/10/21 14:16:53;;;;;;;12.65;6.85;;;17.20;84.50;;;;;;5031980;28;20037;-77
2022/10/21 14:19:34;;;;;;;15.30;6.55;;;17.20;84.30;;;;;;5032045;28;20057;-79
2022/10/21 14:22:00;;;;;;;12.05;6.80;;;17.20;84.30;;;;;;5100609;28;20463;-79
2022/10/21 14:28:04;;;;;;;12.95;6.82;;;17.20;84.40;;;;;;5041229;28;20044;-79
2022/10/21 14:30:33;;;;;;;9.93;6.75;;;17.20;84.50;;;;;;5120367;27;20049;-79
2022/10/21 14:33:03;;;;;;;16.35;8.23;;;17.20;84.60;;;;;;5050655;28;20049;-79
2022/10/21 14:35:30;;;;;;;15.35;7.72;;;17.20;85.20;;;;;;5051847;28;20057;-78
2022/10/21 14:37:57;;;;;;;13.93;7.18;;;17.20;85.90;;;;;;5052346;28;20049;-76
2022/10/21 14:40:40;;;;;;;15.10;6.47;;;17.20;85.80;;;;;;5052310;28;20131;-79
2022/10/21 14:43:12;;;;;;;12.03;6.73;;;17.30;86.20;;;;;;5052212;28;20342;-79
2022/10/21 14:45:45;;;;;;;16.80;6.72;;;17.30;86.00;;;;;;5121315;27;20346;-79
2022/10/21 14:48:16;;;;;;;14.88;6.28;;;17.30;86.10;;;;;;5120987;27;20368;-79
2022/10/21 14:50:42;;;;;;;15.02;6.53;;;17.30;86.10;;;;;;5103824;28;20060;-79
2022/10/21 14:53:20;;;;;;;12.65;5.60;;;17.30;86.20;;;;;;5121008;27;20052;-79
2022/10/21 14:55:48;;;;;;;12.68;5.57;;;17.30;86.20;;;;;;5051991;28;20037;-79
2022/10/21 14:58:21;;;;;;;12.30;5.35;;;17.30;86.20;;;;;;5121566;28;20116;-79
2022/10/21 15:00:57;;;;;;;14.48;5.30;;;17.30;86.80;;;;;;5052081;28;20062;-79
2022/10/21 15:03:52;;;;;;;17.80;6.05;;;17.30;86.60;;;;;;5100494;28;20366;-79
2022/10/21 15:06:43;;;;;;;10.23;5.35;;;17.30;86.70;;;;;;5096803;28;20456;-83
2022/10/21 15:09:09;;;;;;;11.40;5.05;;;17.20;86.30;;;;;;5084607;28;20044;-82
2022/10/21 15:18:52;;;;;;;15.32;5.97;;;17.20;86.30;;;;;;5054542;28;20060;-83
2022/10/21 15:21:25;;;;;;;18.38;5.68;;;17.30;86.60;;;;;;5049287;28;20053;-80
2022/10/21 15:23:58;;;;;;;12.15;5.40;;;17.30;86.60;;;;;;5057813;28;20056;-77
2022/10/21 15:26:38;;;;;;;14.77;6.25;;;17.30;86.70;;;;;;5058605;28;20603;-77
2022/10/21 15:29:17;;;;;;;14.55;5.95;;;17.30;86.90;;;;;;5057755;28;20041;-77
2022/10/21 15:31:42;;;;;;;15.57;5.75;;;17.30;86.80;;;;;;5057457;28;20048;-76
2022/10/21 15:34:13;;;;;;;12.70;5.35;;;17.30;86.80;;;;;;5058300;28;20041;-76
2022/10/21 15:36:39;;;;;;;18.52;5.10;;;17.40;86.90;;;;;;5057323;28;20044;-77
2022/10/21 15:39:04;;;;;;;14.82;5.40;;;17.30;87.10;;;;;;5058780;28;20200;-76
2022/10/21 15:41:30;;;;;;;9.38;4.32;;;17.40;87.40;;;;;;5058413;28;20359;-76
2022/10/21 15:44:12;;;;;;;21.55;6.55;;;17.40;87.50;;;;;;5057235;28;20465;-78
2022/10/21 15:46:44;;;;;;;23.92;6.25;;;17.40;88.10;;;;;;5058876;28;20341;-74
2022/10/21 15:49:21;;;;;;;24.02;6.50;;;17.40;87.90;;;;;;5058385;28;20140;-74
2022/10/21 15:51:48;;;;;;;25.42;6.25;;;17.40;88.10;;;;;;5058456;28;20048;-75
2022/10/21 15:54:16;;;;;;;36.00;7.47;;;17.40;88.20;;;;;;5058111;28;20392;-76
2022/10/21 15:56:44;;;;;;;36.13;8.02;;;17.40;88.30;;;;;;5058002;28;20426;-76
2022/10/21 15:59:19;;;;;;;29.35;7.75;;;17.40;88.10;;;;;;5057816;28;20053;-75
2022/10/21 16:01:45;;;;;;;21.50;6.45;;;17.40;87.90;;;;;;5056175;28;20106;-76
2022/10/21 16:04:11;;;;;;;21.77;6.95;;;17.40;87.60;;;;;;5058007;28;20072;-76
2022/10/21 16:06:38;;;;;;;17.63;7.68;;;17.40;87.30;;;;;;5058119;28;20503;-78
2022/10/21 16:09:04;;;;;;;21.40;8.48;;;17.40;87.20;;;;;;5056040;28;20064;-76
2022/10/21 16:11:30;;;;;;;15.43;9.13;;;17.40;86.90;;;;;;5057294;28;20520;-78
2022/10/21 16:13:56;;;;;;;17.38;8.93;;;17.40;86.80;;;;;;5055404;28;20052;-78
2022/10/21 16:16:24;;;;;;;19.63;8.73;;;17.40;86.60;;;;;;5055190;28;20463;-76
2022/10/21 16:18:51;;;;;;;13.32;7.57;;;17.40;86.60;;;;;;5057669;28;20047;-75
2022/10/21 16:21:18;;;;;;;25.83;8.48;;;17.40;86.60;;;;;;5056976;28;20057;-76
2022/10/21 16:23:45;;;;;;;18.13;8.80;;;17.40;86.40;;;;;;5057462;28;20153;-75
2022/10/21 16:26:25;;;;;;;26.80;8.38;;;17.40;86.40;;;;;;5056713;28;20132;-75
2022/10/21 16:28:53;;;;;;;20.90;7.57;;;17.40;86.40;;;;;;5057028;28;20053;-76
2022/10/21 16:31:20;;;;;;;19.40;8.10;;;17.30;86.30;;;;;;5049113;28;20041;-75
2022/10/21 16:33:46;;;;;;;14.40;6.78;;;17.30;86.30;;;;;;5037756;28;20444;-75
2022/10/21 16:36:21;;;;;;;14.98;7.13;;;17.30;86.20;;;;;;5036551;28;20363;-75
2022/10/21 16:38:47;;;;;;;16.67;7.43;;;17.30;86.20;;;;;;5037948;28;20049;-74
2022/10/21 16:41:19;;;;;;;14.13;7.38;;;17.30;86.10;;;;;;5036379;28;20088;-74
2022/10/21 16:43:45;;;;;;;14.50;6.57;;;17.30;86.10;;;;;;5037841;28;20520;-75
2022/10/21 16:46:28;;;;;;;11.15;5.93;;;17.30;86.00;;;;;;5036645;28;20050;-73
2022/10/21 16:48:56;;;;;;;11.98;6.07;;;17.30;85.90;;;;;;5037173;28;20049;-74
2022/10/21 16:51:23;;;;;;;10.38;5.60;;;17.30;85.70;;;;;;5037178;28;20052;-74
2022/10/21 16:53:49;;;;;;;11.30;6.38;;;17.30;85.70;;;;;;5036709;28;20053;-76
2022/10/21 16:56:15;;;;;;;11.80;5.63;;;17.30;85.60;;;;;;5036106;28;20092;-73
2022/10/21 16:58:41;;;;;;;10.05;5.60;;;17.30;85.60;;;;;;5037338;28;20462;-75
2022/10/21 17:01:09;;;;;;;9.75;5.80;;;17.30;85.50;;;;;;5042499;28;20064;-73
2022/10/21 17:03:35;;;;;;;14.93;6.22;;;17.30;85.40;;;;;;5046382;28;20057;-76
2022/10/21 17:06:01;;;;;;;9.70;5.53;;;17.30;85.30;;;;;;5037468;28;20373;-76
2022/10/21 17:08:26;;;;;;;10.20;5.38;;;17.30;85.30;;;;;;5037014;28;20052;-75
2022/10/21 17:10:52;;;;;;;10.77;5.13;;;17.30;85.30;;;;;;5036978;28;20489;-73
2022/10/21 17:13:18;;;;;;;15.52;6.20;;;17.30;85.30;;;;;;5036991;28;20536;-73
2022/10/21 17:15:44;;;;;;;14.13;5.35;;;17.30;85.30;;;;;;5039392;28;20132;-73
2022/10/21 17:18:09;;;;;;;12.68;4.72;;;17.30;85.30;;;;;;5037552;28;20110;-73
2022/10/21 17:20:35;;;;;;;15.13;5.45;;;17.30;85.30;;;;;;5054737;28;20334;-68
2022/10/21 17:23:01;;;;;;;6.97;3.90;;;17.30;85.30;;;;;;5055436;28;20053;-74
2022/10/21 17:25:29;;;;;;;6.47;4.47;;;17.40;85.30;;;;;;5056505;28;20055;-72
2022/10/21 17:27:56;;;;;;;11.05;4.22;;;17.40;85.10;;;;;;5038049;28;20045;-77
2022/10/21 17:30:21;;;;;;;12.95;6.75;;;17.40;84.90;;;;;;5055889;28;20465;-77
2022/10/21 17:32:47;;;;;;;15.65;8.07;;;17.40;84.50;;;;;;5056809;28;20106;-76
2022/10/21 17:35:19;;;;;;;14.88;8.63;;;17.40;84.10;;;;;;5041672;28;20036;-75
2022/10/21 17:37:49;;;;;;;15.18;7.68;;;17.40;83.90;;;;;;5075960;28;20048;-77
2022/10/21 17:40:17;;;;;;;14.20;7.20;;;17.40;83.90;;;;;;5057529;28;20488;-74
2022/10/21 17:42:43;;;;;;;11.65;6.95;;;17.30;84.30;;;;;;5058085;28;20052;-74
2022/10/21 17:45:11;;;;;;;11.60;6.75;;;17.30;84.50;;;;;;5075663;28;20071;-73
2022/10/21 17:47:37;;;;;;;15.98;6.85;;;17.30;84.60;;;;;;5076287;28;20067;-74
2022/10/21 17:50:03;;;;;;;11.50;6.35;;;17.30;84.50;;;;;;5076131;28;20048;-74
2022/10/21 17:52:29;;;;;;;12.45;6.60;;;17.30;84.50;;;;;;5075634;28;20127;-74
2022/10/21 17:54:55;;;;;;;14.50;6.00;;;17.30;84.40;;;;;;5058230;28;20491;-76
2022/10/21 17:57:22;;;;;;;12.73;5.95;;;17.30;84.40;;;;;;5076032;28;20049;-73
2022/10/21 17:59:51;;;;;;;12.35;6.13;;;17.30;84.30;;;;;;5059047;28;20052;-76
2022/10/21 18:02:16;;;;;;;11.85;6.10;;;17.30;84.20;;;;;;5069610;28;20449;-76
2022/10/21 18:04:42;;;;;;;11.02;5.47;;;17.40;84.20;;;;;;5076335;28;20053;-74
2022/10/21 18:07:08;;;;;;;9.70;5.18;;;17.30;84.10;;;;;;5075767;28;20048;-75
2022/10/21 18:09:34;;;;;;;9.80;5.07;;;17.40;84.00;;;;;;5057965;28;20468;-73
2022/10/21 18:11:59;;;;;;;7.63;4.72;;;17.40;83.90;;;;;;5076234;28;20071;-73
2022/10/21 18:14:25;;;;;;;7.85;4.95;;;17.40;83.90;;;;;;5076201;28;20044;-76
2022/10/21 18:16:51;;;;;;;10.35;5.40;;;17.40;83.80;;;;;;5075116;28;20147;-74
2022/10/21 18:19:17;;;;;;;9.57;4.75;;;17.30;83.60;;;;;;5057942;28;20059;-73
2022/10/21 18:21:42;;;;;;;8.75;5.18;;;17.40;83.60;;;;;;5075716;28;20043;-78
2022/10/21 18:24:08;;;;;;;9.40;4.15;;;17.40;83.50;;;;;;5058527;28;20452;-77
2022/10/21 18:26:35;;;;;;;11.68;5.32;;;17.40;83.30;;;;;;5076016;28;20055;-73
2022/10/21 18:29:03;;;;;;;7.45;5.35;;;17.40;83.20;;;;;;5075244;28;20408;-73
2022/10/21 18:31:34;;;;;;;8.77;4.88;;;17.40;83.20;;;;;;5053216;28;20083;-79
2022/10/21 18:34:02;;;;;;;13.25;5.78;;;17.40;83.20;;;;;;5021561;28;20033;-78
2022/10/21 18:36:29;;;;;;;10.45;6.20;;;17.40;83.20;;;;;;5037480;28;20101;-78
2022/10/21 18:38:56;;;;;;;8.07;6.07;;;17.40;83.10;;;;;;5037415;28;20060;-76
2022/10/21 18:41:22;;;;;;;12.48;8.05;;;17.40;83.00;;;;;;5054709;28;20043;-79
2022/10/21 18:43:51;;;;;;;14.73;7.68;;;17.40;82.80;;;;;;5056374;28;20037;-78
2022/10/21 18:46:17;;;;;;;13.95;7.90;;;17.40;82.50;;;;;;5056434;28;20414;-77
2022/10/21 18:48:43;;;;;;;11.35;9.98;;;17.40;82.30;;;;;;5056749;28;20071;-74
2022/10/21 18:51:10;;;;;;;16.83;11.38;;;17.40;81.90;;;;;;5074294;28;20041;-75
2022/10/21 18:53:37;;;;;;;12.35;10.55;;;17.30;81.60;;;;;;5057128;28;20124;-74
2022/10/21 18:56:08;;;;;;;12.48;9.43;;;17.30;81.70;;;;;;5075060;28;20040;-73
2022/10/21 18:58:36;;;;;;;14.02;9.45;;;17.20;81.70;;;;;;5074894;28;20044;-72
2022/10/21 19:01:03;;;;;;;13.60;9.73;;;17.10;81.90;;;;;;5074319;28;20056;-74
2022/10/21 19:03:29;;;;;;;12.40;8.23;;;17.00;82.20;;;;;;5057050;28;20044;-73